Time;durP1;ratioP1;P1;durP2;ratioP2;P2;SDS_P1;SDS_P2;PMS_P1;PMS_P2;Temp;Humidity;BMP_temperature;BMP_pressure;BME280_temperature;BME280_humidity;BME280_pressure;Samples;Min_cycle;Max_cycle;Signal;HPM_P1;HPM_P2
2022/01/31 00:01:05;;;;;;;4.40;0.70;;;;;;;2.81;74.81;99593.59;1694114;83;28279;-73
2022/01/31 00:03:34;;;;;;;4.12;0.90;;;;;;;2.74;75.74;99570.94;1685545;83;26465;-74
2022/01/31 00:06:01;;;;;;;3.05;0.93;;;;;;;2.67;76.12;99570.44;1707907;83;26092;-74
2022/01/31 00:08:28;;;;;;;1.32;0.80;;;;;;;2.60;77.39;99576.03;1707957;83;26357;-74
2022/01/31 00:10:54;;;;;;;3.02;1.22;;;;;;;2.53;77.41;99589.05;1708365;82;26140;-74
2022/01/31 00:13:33;;;;;;;3.22;0.80;;;;;;;2.48;78.00;99591.86;1708009;83;27431;-74
2022/01/31 00:15:56;;;;;;;3.10;0.85;;;;;;;2.46;77.89;99605.20;1706558;83;25895;-74
2022/01/31 00:18:22;;;;;;;3.40;1.00;;;;;;;2.44;78.70;99602.42;1708069;83;25966;-74
2022/01/31 00:20:48;;;;;;;5.08;0.90;;;;;;;2.39;79.88;99606.86;1708262;83;25993;-74
2022/01/31 00:23:15;;;;;;;1.67;0.70;;;;;;;2.29;80.42;99611.41;1707914;83;26550;-73
2022/01/31 00:25:41;;;;;;;4.40;1.10;;;;;;;2.21;82.29;99623.27;1707843;83;27504;-73
2022/01/31 00:28:07;;;;;;;3.17;1.15;;;;;;;2.14;80.97;99608.53;1707970;83;25858;-73
2022/01/31 00:30:34;;;;;;;2.45;1.12;;;;;;;2.16;81.23;99586.75;1708404;83;25778;-73
2022/01/31 00:33:02;;;;;;;3.20;1.00;;;;;;;2.15;81.78;99600.13;1666293;85;26255;-74
2022/01/31 00:35:28;;;;;;;5.20;1.30;;;;;;;2.12;82.00;99594.66;1694715;84;26563;-74
2022/01/31 00:37:54;;;;;;;6.72;3.22;;;;;;;2.11;82.41;99596.14;1694687;84;27474;-74
2022/01/31 00:40:21;;;;;;;4.58;1.10;;;;;;;2.10;82.57;99590.03;1666417;85;25952;-74
2022/01/31 00:42:47;;;;;;;5.65;1.50;;;;;;;2.09;82.71;99596.31;1694573;84;26406;-74
2022/01/31 00:45:26;;;;;;;4.37;1.57;;;;;;;2.09;82.87;99584.91;1694152;83;26450;-74
2022/01/31 00:47:58;;;;;;;4.47;1.42;;;;;;;2.08;82.83;99584.08;1686203;84;26014;-74
2022/01/31 00:50:18;;;;;;;4.87;1.45;;;;;;;2.09;82.96;99573.86;1707562;83;27478;-75
2022/01/31 00:52:46;;;;;;;4.75;1.75;;;;;;;2.11;82.95;99578.49;1666033;85;26513;-74
2022/01/31 00:55:14;;;;;;;7.65;2.35;;;;;;;2.15;82.62;99582.47;1695524;84;25640;-73
2022/01/31 00:57:40;;;;;;;4.12;1.95;;;;;;;2.19;82.39;99586.94;1694336;84;25928;-73
2022/01/31 01:00:09;;;;;;;6.50;1.98;;;;;;;2.23;82.18;99575.89;1666426;85;25996;-73
2022/01/31 01:02:36;;;;;;;7.70;2.70;;;;;;;2.28;81.84;99584.67;1694263;84;28310;-75
2022/01/31 01:05:04;;;;;;;5.90;1.90;;;;;;;2.32;81.48;99599.22;1694550;84;25849;-73
2022/01/31 01:07:30;;;;;;;9.35;2.27;;;;;;;2.37;81.33;99606.67;1694717;84;25812;-74
2022/01/31 01:09:57;;;;;;;9.78;2.22;;;;;;;2.41;80.96;99610.16;1695047;84;26267;-74
2022/01/31 01:12:23;;;;;;;11.43;3.10;;;;;;;2.45;80.53;99633.97;1694352;83;25778;-74
2022/01/31 01:14:50;;;;;;;5.72;1.70;;;;;;;2.50;79.85;99629.53;1694473;84;28244;-74
2022/01/31 01:17:18;;;;;;;11.93;2.83;;;;;;;2.52;79.55;99628.39;1694292;84;25812;-74
2022/01/31 01:19:45;;;;;;;9.85;2.35;;;;;;;2.53;79.08;99631.83;1694680;84;25328;-74
2022/01/31 01:22:11;;;;;;;6.53;2.00;;;;;;;2.53;78.78;99633.98;1694336;84;26235;-74
2022/01/31 01:24:38;;;;;;;9.68;1.87;;;;;;;2.55;78.43;99633.82;1694546;84;25280;-73
2022/01/31 01:27:04;;;;;;;9.53;1.80;;;;;;;2.57;78.44;99631.84;1694521;84;27445;-74
2022/01/31 01:29:31;;;;;;;8.63;1.80;;;;;;;2.58;78.69;99633.03;1694731;84;25768;-73
2022/01/31 01:31:57;;;;;;;8.85;1.85;;;;;;;2.62;78.39;99627.76;1675754;84;25454;-74
2022/01/31 01:34:26;;;;;;;7.08;2.00;;;;;;;2.63;78.48;99632.04;1673198;85;25847;-73
2022/01/31 01:36:53;;;;;;;8.25;2.45;;;;;;;2.65;78.52;99622.13;1674164;85;25845;-74
2022/01/31 01:39:20;;;;;;;12.07;2.27;;;;;;;2.68;78.36;99623.14;1674058;85;27479;-74
2022/01/31 01:41:47;;;;;;;12.90;2.37;;;;;;;2.71;78.50;99625.97;1673776;85;25872;-74
2022/01/31 01:44:14;;;;;;;11.30;2.55;;;;;;;2.71;78.30;99629.45;1674020;85;25782;-74
2022/01/31 01:46:40;;;;;;;13.40;2.27;;;;;;;2.71;77.82;99614.91;1652711;85;25844;-73
2022/01/31 01:49:06;;;;;;;9.68;1.95;;;;;;;2.73;78.07;99616.89;1674543;85;25506;-74
2022/01/31 01:51:33;;;;;;;11.48;2.30;;;;;;;2.74;78.30;99614.56;1673975;85;27021;-73
2022/01/31 01:54:00;;;;;;;6.60;2.47;;;;;;;2.74;78.22;99607.13;1673582;85;25933;-74
2022/01/31 01:56:28;;;;;;;12.37;2.00;;;;;;;2.74;78.15;99609.77;1673963;85;25913;-74
2022/01/31 01:58:54;;;;;;;12.58;2.83;;;;;;;2.71;78.31;99603.01;1673864;85;25798;-73
2022/01/31 02:01:21;;;;;;;8.58;2.00;;;;;;;2.69;78.33;99601.51;1652967;85;25791;-74
2022/01/31 02:03:49;;;;;;;15.10;2.50;;;;;;;2.66;77.96;99602.65;1672593;85;28099;-73
2022/01/31 02:06:15;;;;;;;12.40;2.58;;;;;;;2.65;78.03;99597.53;1653800;85;26066;-75
2022/01/31 02:08:44;;;;;;;9.80;2.33;;;;;;;2.65;78.04;99599.66;1646918;86;25815;-74
2022/01/31 02:11:13;;;;;;;7.78;2.83;;;;;;;2.65;77.53;99589.60;1673552;85;26235;-74
2022/01/31 02:13:41;;;;;;;9.15;2.60;;;;;;;2.64;77.51;99590.58;1673941;85;25819;-74
2022/01/31 02:16:09;;;;;;;11.08;2.35;;;;;;;2.63;77.65;99595.03;1646082;86;28286;-74
2022/01/31 02:18:45;;;;;;;10.47;2.53;;;;;;;2.63;77.77;99589.73;1673810;85;25605;-74
2022/01/31 02:21:07;;;;;;;10.78;2.30;;;;;;;2.63;77.61;99593.70;1673142;85;25914;-73
2022/01/31 02:23:34;;;;;;;9.33;2.87;;;;;;;2.62;77.53;99592.06;1628654;87;25634;-73
2022/01/31 02:26:11;;;;;;;13.43;3.75;;;;;;;2.60;77.40;99579.50;1671474;85;25894;-73
2022/01/31 02:28:45;;;;;;;10.78;2.47;;;;;;;2.57;77.30;99578.98;1673269;85;28288;-74
2022/01/31 02:31:12;;;;;;;13.68;2.30;;;;;;;2.54;77.41;99581.48;1653760;86;26022;-74
2022/01/31 02:33:38;;;;;;;12.40;2.17;;;;;;;2.54;77.62;99580.64;1690887;84;25827;-73
2022/01/31 02:36:06;;;;;;;16.20;2.65;;;;;;;2.51;77.39;99589.71;1690997;84;25850;-74
2022/01/31 02:38:33;;;;;;;7.53;1.92;;;;;;;2.49;77.22;99573.67;1663441;85;26138;-73
2022/01/31 02:41:01;;;;;;;8.20;2.20;;;;;;;2.49;77.37;99577.64;1667103;84;27551;-74
2022/01/31 02:43:31;;;;;;;10.95;2.15;;;;;;;2.48;77.16;99569.39;1690718;84;25906;-74
2022/01/31 02:45:58;;;;;;;13.00;2.55;;;;;;;2.47;77.39;99575.16;1658737;86;26463;-74
2022/01/31 02:48:27;;;;;;;14.40;2.67;;;;;;;2.45;77.27;99572.34;1640440;86;26363;-73
2022/01/31 02:50:55;;;;;;;8.60;1.70;;;;;;;2.44;77.40;99569.38;1663245;86;25854;-74
2022/01/31 02:53:25;;;;;;;12.60;3.02;;;;;;;2.43;77.06;99571.67;1670271;84;27462;-74
2022/01/31 02:55:55;;;;;;;13.80;1.97;;;;;;;2.41;77.19;99563.08;1692405;83;25913;-73
2022/01/31 02:58:24;;;;;;;11.28;2.37;;;;;;;2.41;77.23;99571.01;1720431;83;25975;-74
2022/01/31 03:00:53;;;;;;;17.92;2.85;;;;;;;2.40;77.30;99570.17;1720092;83;25726;-74
2022/01/31 03:03:22;;;;;;;10.32;2.15;;;;;;;2.41;77.64;99564.41;1702896;83;25758;-74
2022/01/31 03:05:51;;;;;;;12.13;2.45;;;;;;;2.39;77.67;99565.06;1663025;86;28239;-74
2022/01/31 03:08:19;;;;;;;11.48;3.05;;;;;;;2.33;77.75;99566.54;1691040;84;26120;-74
2022/01/31 03:10:46;;;;;;;15.08;4.12;;;;;;;2.30;77.88;99563.72;1691655;84;25852;-74
2022/01/31 03:13:14;;;;;;;12.03;2.17;;;;;;;2.28;78.02;99576.26;1662477;86;25814;-74
2022/01/31 03:15:42;;;;;;;10.50;2.58;;;;;;;2.26;78.11;99575.59;1690244;84;25807;-73
2022/01/31 03:18:11;;;;;;;11.85;2.92;;;;;;;2.22;78.11;99578.19;1691227;84;27483;-73
2022/01/31 03:20:38;;;;;;;16.40;2.67;;;;;;;2.19;78.29;99583.80;1663273;85;25917;-74
2022/01/31 03:23:04;;;;;;;16.90;2.92;;;;;;;2.16;78.41;99586.75;1655083;86;25915;-73
2022/01/31 03:25:33;;;;;;;17.65;2.92;;;;;;;2.14;78.40;99593.17;1687132;84;26106;-73
2022/01/31 03:27:59;;;;;;;8.53;2.58;;;;;;;2.13;78.44;99595.50;1661911;85;25753;-74
2022/01/31 03:30:25;;;;;;;11.93;2.80;;;;;;;2.13;78.58;99596.81;1691585;84;28101;-73
2022/01/31 03:32:53;;;;;;;13.60;2.35;;;;;;;2.13;78.83;99599.45;1655199;85;25807;-73
2022/01/31 03:35:20;;;;;;;13.93;2.40;;;;;;;2.10;78.66;99597.95;1684746;84;25760;-73
2022/01/31 03:37:48;;;;;;;12.40;2.70;;;;;;;2.10;78.73;99609.84;1684973;84;26438;-73
2022/01/31 03:40:16;;;;;;;14.15;3.40;;;;;;;2.10;78.92;99604.55;1667355;85;25769;-74
2022/01/31 03:42:42;;;;;;;13.78;3.02;;;;;;;2.11;79.13;99604.07;1667488;85;27635;-73
2022/01/31 03:45:11;;;;;;;13.05;2.35;;;;;;;2.09;79.04;99605.56;1667453;85;25934;-72
2022/01/31 03:47:44;;;;;;;12.98;3.20;;;;;;;2.10;79.34;99604.55;1667763;84;25888;-74
2022/01/31 03:50:07;;;;;;;13.53;2.87;;;;;;;2.08;79.28;99609.17;1667691;85;26312;-73
2022/01/31 03:52:34;;;;;;;14.93;2.95;;;;;;;2.03;79.39;99611.44;1667625;85;25935;-74
2022/01/31 03:55:00;;;;;;;17.87;2.72;;;;;;;2.00;79.70;99603.02;1667803;85;28299;-73
2022/01/31 03:57:28;;;;;;;16.40;3.27;;;;;;;1.98;79.94;99612.91;1667788;85;25879;-73
2022/01/31 04:00:15;;;;;;;8.45;3.25;;;;;;;1.92;80.22;99609.09;1667362;85;25891;-73
2022/01/31 04:02:44;;;;;;;18.75;4.05;;;;;;;1.87;80.43;99603.92;1665673;85;25948;-73
2022/01/31 04:05:11;;;;;;;15.13;2.95;;;;;;;1.81;80.74;99597.95;1671171;84;25791;-73
2022/01/31 04:07:37;;;;;;;15.10;3.98;;;;;;;1.75;80.91;99608.65;1681123;84;27485;-74
2022/01/31 04:10:05;;;;;;;14.33;2.80;;;;;;;1.74;80.85;99610.94;1669526;84;25623;-74
2022/01/31 04:12:31;;;;;;;14.18;3.15;;;;;;;1.71;81.01;99606.47;1676591;84;25901;-73
2022/01/31 04:14:59;;;;;;;19.52;4.28;;;;;;;1.69;81.28;99602.64;1685281;84;26423;-74
2022/01/31 04:17:25;;;;;;;15.15;3.92;;;;;;;1.65;81.20;99601.30;1695836;83;26410;-74
2022/01/31 04:19:52;;;;;;;17.12;3.52;;;;;;;1.63;81.09;99612.98;1695799;84;28019;-73
2022/01/31 04:22:20;;;;;;;15.93;4.35;;;;;;;1.60;81.09;99609.35;1695630;84;25953;-73
2022/01/31 04:24:54;;;;;;;17.10;4.33;;;;;;;1.57;81.25;99615.77;1695602;84;25960;-74
2022/01/31 04:27:19;;;;;;;20.95;5.15;;;;;;;1.52;81.40;99612.74;1695232;84;25784;-73
2022/01/31 04:29:46;;;;;;;11.93;4.37;;;;;;;1.50;81.56;99607.63;1680176;84;25837;-73
2022/01/31 04:32:13;;;;;;;18.42;4.45;;;;;;;1.47;81.61;99596.56;1660144;85;27495;-73
2022/01/31 04:34:40;;;;;;;15.15;3.08;;;;;;;1.46;81.58;99601.48;1653889;86;25771;-74
2022/01/31 04:37:07;;;;;;;13.58;4.28;;;;;;;1.45;81.81;99595.89;1654255;86;25821;-73
2022/01/31 04:39:33;;;;;;;19.50;5.37;;;;;;;1.44;82.02;99598.17;1654230;86;25814;-73
2022/01/31 04:42:00;;;;;;;16.82;3.62;;;;;;;1.42;81.90;99600.14;1654196;86;25861;-73
2022/01/31 04:44:26;;;;;;;16.67;4.55;;;;;;;1.38;81.87;99589.08;1648602;85;28401;-74
2022/01/31 04:46:54;;;;;;;15.95;3.87;;;;;;;1.39;81.98;99595.19;1672588;84;25967;-73
2022/01/31 04:49:21;;;;;;;21.40;5.10;;;;;;;1.41;81.91;99601.14;1675265;84;25800;-73
2022/01/31 04:51:48;;;;;;;10.70;4.00;;;;;;;1.38;82.16;99594.35;1654289;86;25808;-74
2022/01/31 04:54:15;;;;;;;21.20;4.53;;;;;;;1.36;82.18;99588.40;1654401;86;25810;-74
2022/01/31 04:56:42;;;;;;;20.88;4.75;;;;;;;1.35;82.25;99589.84;1642040;87;28315;-74
2022/01/31 04:59:09;;;;;;;22.00;6.03;;;;;;;1.32;82.31;99588.37;1641739;87;26581;-74
2022/01/31 05:01:39;;;;;;;11.93;3.83;;;;;;;1.28;82.23;99584.35;1642030;86;25755;-73
2022/01/31 05:04:05;;;;;;;25.72;4.17;;;;;;;1.27;82.20;99585.83;1664898;85;27296;-73
2022/01/31 05:06:36;;;;;;;10.08;3.37;;;;;;;1.24;82.10;99590.11;1669400;85;25806;-73
2022/01/31 05:08:59;;;;;;;14.93;4.42;;;;;;;1.24;82.23;99590.11;1668858;85;27491;-74
2022/01/31 05:11:26;;;;;;;15.48;4.12;;;;;;;1.20;82.22;99582.97;1669342;85;25779;-74
2022/01/31 05:13:52;;;;;;;19.82;5.22;;;;;;;1.18;82.32;99585.42;1668995;85;25716;-73
2022/01/31 05:16:18;;;;;;;16.55;4.25;;;;;;;1.17;82.66;99583.78;1669247;85;26481;-74
2022/01/31 05:18:44;;;;;;;22.10;4.92;;;;;;;1.16;82.60;99574.20;1669503;85;26266;-74
2022/01/31 05:21:11;;;;;;;15.28;4.62;;;;;;;1.17;82.68;99571.91;1669216;85;27469;-73
2022/01/31 05:23:37;;;;;;;21.23;4.03;;;;;;;1.19;82.62;99564.67;1668935;85;26017;-74
2022/01/31 05:26:04;;;;;;;21.82;4.58;;;;;;;1.20;82.64;99571.11;1669153;85;25944;-74
2022/01/31 05:28:30;;;;;;;21.48;5.05;;;;;;;1.18;82.63;99563.84;1669195;85;26518;-73
2022/01/31 05:30:56;;;;;;;15.43;4.85;;;;;;;1.18;82.69;99566.47;1669303;85;26547;-73
2022/01/31 05:33:22;;;;;;;14.20;5.22;;;;;;;1.18;82.65;99562.52;1668872;85;27457;-74
2022/01/31 05:35:49;;;;;;;17.23;4.75;;;;;;;1.18;82.74;99559.05;1668529;85;25961;-73
2022/01/31 05:38:14;;;;;;;17.52;3.92;;;;;;;1.15;82.61;99549.66;1670143;84;25720;-74
2022/01/31 05:40:41;;;;;;;14.95;3.52;;;;;;;1.15;82.67;99557.56;1676961;84;26511;-74
2022/01/31 05:43:07;;;;;;;22.58;4.85;;;;;;;1.13;82.71;99548.98;1672541;84;26001;-73
2022/01/31 05:45:33;;;;;;;21.17;4.12;;;;;;;1.12;82.55;99556.54;1668603;85;27453;-74
2022/01/31 05:47:59;;;;;;;16.37;4.55;;;;;;;1.09;82.36;99553.39;1676245;84;25637;-74
2022/01/31 05:50:25;;;;;;;17.67;4.78;;;;;;;1.06;82.33;99557.63;1665529;85;25864;-73
2022/01/31 05:52:52;;;;;;;24.27;5.15;;;;;;;1.04;82.24;99546.41;1667030;85;26253;-74
2022/01/31 05:55:18;;;;;;;12.00;4.35;;;;;;;0.99;82.15;99548.18;1666912;85;25811;-74
2022/01/31 05:57:44;;;;;;;14.60;4.42;;;;;;;1.00;82.19;99534.52;1665759;85;27486;-73
2022/01/31 06:00:12;;;;;;;19.57;4.12;;;;;;;0.99;82.08;99542.07;1667359;85;25795;-74
2022/01/31 06:02:39;;;;;;;11.22;3.90;;;;;;;0.98;82.01;99534.67;1706294;83;25883;-73
2022/01/31 06:05:06;;;;;;;16.35;4.40;;;;;;;0.94;82.00;99542.52;1693878;83;25925;-74
2022/01/31 06:07:32;;;;;;;15.13;4.58;;;;;;;0.93;82.01;99533.45;1689680;84;25742;-73
2022/01/31 06:10:00;;;;;;;15.75;4.03;;;;;;;0.92;82.01;99536.58;1689866;84;28704;-73
2022/01/31 06:12:28;;;;;;;19.40;4.55;;;;;;;0.94;82.06;99539.08;1686687;84;25857;-73
2022/01/31 06:14:54;;;;;;;18.12;4.10;;;;;;;0.93;81.96;99541.36;1661043;86;25310;-74
2022/01/31 06:17:20;;;;;;;21.97;5.67;;;;;;;0.93;82.00;99540.88;1689624;84;26173;-74
2022/01/31 06:19:46;;;;;;;21.90;5.08;;;;;;;0.91;81.98;99528.83;1690109;84;25806;-73
2022/01/31 06:22:13;;;;;;;20.00;5.50;;;;;;;0.90;82.01;99532.46;1660172;86;27541;-74
2022/01/31 06:24:40;;;;;;;24.80;5.62;;;;;;;0.91;82.03;99542.84;1661784;86;25767;-74
2022/01/31 06:27:08;;;;;;;19.15;5.22;;;;;;;0.90;82.04;99535.90;1688951;84;26497;-74
2022/01/31 06:29:34;;;;;;;17.55;4.92;;;;;;;0.91;82.20;99544.16;1637042;86;25793;-74
2022/01/31 06:32:08;;;;;;;16.12;4.65;;;;;;;0.89;82.12;99540.02;1661361;85;25959;-74
2022/01/31 06:34:35;;;;;;;15.58;5.47;;;;;;;0.88;82.16;99532.59;1690009;84;28373;-74
2022/01/31 06:37:04;;;;;;;22.25;6.17;;;;;;;0.88;82.28;99541.02;1660333;86;25922;-73
2022/01/31 06:39:29;;;;;;;14.78;4.78;;;;;;;0.85;82.33;99534.23;1661697;86;25801;-73
2022/01/31 06:41:56;;;;;;;16.07;5.05;;;;;;;0.86;82.63;99536.34;1689585;84;26266;-74
2022/01/31 06:44:22;;;;;;;18.45;6.08;;;;;;;0.85;82.77;99535.55;1660459;86;25931;-74
2022/01/31 06:46:48;;;;;;;15.28;5.03;;;;;;;0.86;82.86;99533.71;1661995;86;27440;-73
2022/01/31 06:49:14;;;;;;;20.05;7.03;;;;;;;0.88;82.96;99535.73;1571107;84;10000934;-74
2022/01/31 06:51:41;;;;;;;19.42;6.60;;;;;;;0.88;83.12;99531.78;1687084;84;25466;-74
2022/01/31 06:54:08;;;;;;;20.17;6.45;;;;;;;0.88;83.20;99519.41;1660494;86;26578;-74
2022/01/31 06:56:38;;;;;;;17.65;6.53;;;;;;;0.89;83.14;99528.15;1662036;86;25823;-74
2022/01/31 06:59:03;;;;;;;16.67;6.12;;;;;;;0.89;83.32;99525.52;1689322;84;25806;-73
2022/01/31 07:01:29;;;;;;;25.70;5.65;;;;;;;0.86;83.42;99529.27;1661529;86;25538;-73
2022/01/31 07:03:55;;;;;;;19.07;6.03;;;;;;;0.86;83.42;99523.17;1663793;86;25786;-74
2022/01/31 07:06:23;;;;;;;21.90;6.30;;;;;;;0.87;83.45;99527.48;1691158;84;25848;-73
2022/01/31 07:08:50;;;;;;;23.87;5.25;;;;;;;0.87;83.54;99530.95;1691622;83;27445;-74
2022/01/31 07:11:22;;;;;;;22.95;5.00;;;;;;;0.90;83.60;99534.58;1663092;86;26039;-74
2022/01/31 07:13:47;;;;;;;17.92;4.75;;;;;;;0.89;83.45;99532.94;1690824;84;25822;-73
2022/01/31 07:16:12;;;;;;;20.25;4.33;;;;;;;0.89;83.40;99528.98;1691240;84;25861;-74
2022/01/31 07:18:40;;;;;;;17.48;4.47;;;;;;;0.91;83.44;99528.34;1663317;84;25880;-73
2022/01/31 07:21:06;;;;;;;18.75;4.70;;;;;;;0.95;83.42;99520.95;1690694;83;27595;-74
2022/01/31 07:24:20;;;;;;;20.08;6.70;;;;;;;0.96;83.27;99519.98;1661695;86;25984;-74
2022/01/31 07:26:07;;;;;;;20.20;5.78;;;;;;;0.99;83.19;99523.13;1679868;84;25616;-73
2022/01/31 07:28:33;;;;;;;23.62;5.15;;;;;;;0.99;83.25;99521.81;1661053;86;25796;-73
2022/01/31 07:30:59;;;;;;;19.90;6.25;;;;;;;1.02;83.23;99523.33;1661710;86;25848;-73
2022/01/31 07:37:33;;;;;;;17.62;5.67;;;;;;;1.04;83.32;99513.45;1687605;84;26037;-73
2022/01/31 07:40:00;;;;;;;19.15;6.10;;;;;;;1.03;83.39;99508.66;1680610;83;25855;-74
2022/01/31 07:42:26;;;;;;;16.50;6.30;;;;;;;1.05;83.38;99510.66;1694422;83;25918;-73
2022/01/31 07:44:54;;;;;;;21.07;5.25;;;;;;;1.07;83.30;99507.38;1685010;84;25907;-74
2022/01/31 07:47:20;;;;;;;23.80;6.65;;;;;;;1.11;83.48;99512.67;1704852;83;27469;-74
2022/01/31 07:49:46;;;;;;;19.80;5.58;;;;;;;1.12;83.12;99508.23;1708456;83;26100;-74
2022/01/31 07:52:12;;;;;;;18.67;6.17;;;;;;;1.11;82.79;99504.77;1708168;83;25733;-74
2022/01/31 07:54:40;;;;;;;17.60;5.10;;;;;;;1.10;82.91;99497.84;1708033;83;26285;-74
2022/01/31 07:57:06;;;;;;;23.35;6.83;;;;;;;1.12;83.02;99495.88;1708071;83;25917;-74
2022/01/31 07:59:32;;;;;;;28.32;7.70;;;;;;;1.13;83.02;99500.67;1708157;83;27505;-73
2022/01/31 08:01:58;;;;;;;22.55;6.72;;;;;;;1.14;82.89;99495.23;1707960;83;26603;-74
2022/01/31 08:04:24;;;;;;;14.63;5.12;;;;;;;1.15;82.90;99496.91;1708222;83;25793;-73
2022/01/31 08:06:51;;;;;;;20.95;6.90;;;;;;;1.17;82.86;99504.66;1708083;83;25853;-74
2022/01/31 08:09:17;;;;;;;21.90;7.45;;;;;;;1.19;82.91;99494.78;1708359;83;25898;-73
2022/01/31 08:11:44;;;;;;;18.07;7.65;;;;;;;1.20;82.70;99493.78;1708264;83;27458;-74
2022/01/31 08:14:13;;;;;;;24.02;7.75;;;;;;;1.21;82.79;99492.33;1708359;83;26452;-73
2022/01/31 08:16:39;;;;;;;24.67;7.17;;;;;;;1.20;82.55;99498.58;1708091;83;25817;-74
2022/01/31 08:19:08;;;;;;;23.80;6.83;;;;;;;1.20;82.71;99495.09;1708408;83;26580;-73
2022/01/31 08:21:36;;;;;;;26.73;6.60;;;;;;;1.21;82.74;99493.65;1708991;83;25745;-73
2022/01/31 08:24:04;;;;;;;28.75;7.20;;;;;;;1.23;82.78;99493.48;1707920;83;27485;-73
2022/01/31 08:26:31;;;;;;;14.75;5.95;;;;;;;1.24;82.73;99489.37;1708394;83;25814;-76
2022/01/31 08:29:05;;;;;;;21.87;5.70;;;;;;;1.25;82.79;99487.08;1707982;83;25818;-74
2022/01/31 08:31:29;;;;;;;18.50;5.15;;;;;;;1.30;82.76;99492.73;1706886;83;25795;-74
2022/01/31 08:36:24;;;;;;;19.90;6.12;;;;;;;1.34;82.49;99481.37;1708072;83;28266;-74
2022/01/31 08:38:52;;;;;;;17.57;5.47;;;;;;;1.35;81.91;99478.56;1708265;83;26620;-74
2022/01/31 08:41:18;;;;;;;13.98;4.42;;;;;;;1.36;81.68;99471.48;1707801;83;25868;-74
2022/01/31 08:43:45;;;;;;;17.80;4.85;;;;;;;1.36;81.89;99472.31;1708267;83;25750;-73
2022/01/31 08:46:14;;;;;;;19.90;5.37;;;;;;;1.39;81.65;99469.34;1708008;83;25934;-74
2022/01/31 08:48:41;;;;;;;19.92;5.87;;;;;;;1.43;81.65;99475.16;1700000;82;27442;-74
2022/01/31 08:51:10;;;;;;;26.48;6.15;;;;;;;1.46;81.56;99481.42;1700231;83;26026;-75
2022/01/31 08:53:37;;;;;;;21.00;6.35;;;;;;;1.48;81.41;99460.98;1695914;83;25792;-74
2022/01/31 08:56:10;;;;;;;16.35;5.45;;;;;;;1.49;81.29;99466.13;1699575;83;26506;-74
2022/01/31 08:58:43;;;;;;;19.50;6.00;;;;;;;1.52;81.38;99468.92;1696317;83;26062;-73
2022/01/31 09:01:08;;;;;;;18.77;6.60;;;;;;;1.55;81.48;99463.34;1699903;83;27486;-74
2022/01/31 09:04:00;;;;;;;15.08;5.37;;;;;;;1.57;81.39;99465.33;1692502;83;26502;-74
2022/01/31 09:06:12;;;;;;;23.35;5.45;;;;;;;1.56;81.16;99462.38;1659639;85;25842;-73
2022/01/31 09:08:39;;;;;;;22.13;6.10;;;;;;;1.55;81.22;99466.81;1663705;85;25898;-73
2022/01/31 09:11:07;;;;;;;16.42;4.87;;;;;;;1.58;81.48;99465.17;1664880;85;25979;-73
2022/01/31 09:13:34;;;;;;;16.00;5.17;;;;;;;1.64;81.16;99457.62;1661031;84;26925;-74
2022/01/31 09:16:02;;;;;;;16.27;4.42;;;;;;;1.66;81.13;99462.24;1655305;85;26471;-73
2022/01/31 09:18:28;;;;;;;28.65;6.58;;;;;;;1.72;81.01;99464.25;1654399;86;25658;-74
2022/01/31 09:20:57;;;;;;;20.12;5.80;;;;;;;1.75;80.90;99446.30;1690128;84;25647;-74
2022/01/31 09:23:26;;;;;;;15.63;4.45;;;;;;;1.82;81.20;99451.77;1658120;86;25780;-74
2022/01/31 09:25:53;;;;;;;24.02;5.15;;;;;;;1.89;80.94;99443.52;1683432;84;28386;-75
2022/01/31 09:28:19;;;;;;;19.35;5.42;;;;;;;1.92;80.42;99439.26;1659735;86;25885;-74
2022/01/31 09:30:47;;;;;;;24.32;6.05;;;;;;;1.92;79.90;99433.98;1661400;86;25779;-74
2022/01/31 09:33:15;;;;;;;17.48;4.80;;;;;;;1.94;79.85;99425.41;1704711;83;25657;-74
2022/01/31 09:35:43;;;;;;;21.77;5.83;;;;;;;1.98;79.01;99437.29;1661358;86;25837;-73
2022/01/31 09:38:13;;;;;;;21.07;5.15;;;;;;;1.99;78.44;99433.67;1684411;83;27470;-73
2022/01/31 09:40:40;;;;;;;21.70;4.95;;;;;;;2.00;78.58;99428.72;1679393;85;25827;-74
2022/01/31 09:48:31;;;;;;;18.53;5.63;;;;;;;2.05;78.54;99415.86;1682576;84;25726;-74
2022/01/31 09:51:10;;;;;;;16.50;4.83;;;;;;;2.07;78.26;99422.64;1679663;85;27549;-75
2022/01/31 09:53:48;;;;;;;19.87;5.58;;;;;;;2.11;78.05;99411.25;1660105;86;25862;-74
2022/01/31 09:56:24;;;;;;;15.20;4.37;;;;;;;2.14;78.38;99409.59;1660032;86;25758;-74
2022/01/31 09:58:53;;;;;;;14.40;5.25;;;;;;;2.18;77.57;99407.78;1660390;86;25969;-74
2022/01/31 10:01:33;;;;;;;16.50;3.95;;;;;;;2.25;78.03;99407.48;1660082;86;25609;-74
2022/01/31 10:04:04;;;;;;;8.05;3.05;;;;;;;2.33;77.23;99404.84;1660186;85;27443;-74
2022/01/31 10:06:34;;;;;;;18.90;4.85;;;;;;;2.41;76.54;99399.23;1667033;85;25908;-73
2022/01/31 10:09:13;;;;;;;;;;;;;;;2.43;77.13;99398.09;1671715;85;25770;-74
2022/01/31 10:11:51;;;;;;;12.10;2.83;;;;;;;2.47;76.00;99397.26;1669010;85;25871;-73
2022/01/31 10:17:28;;;;;;;11.03;3.60;;;;;;;2.33;73.98;99398.23;1668978;85;27212;-74
2022/01/31 10:20:00;;;;;;;12.63;3.17;;;;;;;2.25;73.83;99387.66;1668838;85;25760;-74
2022/01/31 10:22:33;;;;;;;9.23;3.42;;;;;;;2.19;73.60;99387.48;1668850;85;26520;-73
2022/01/31 10:25:05;;;;;;;11.38;3.60;;;;;;;2.13;73.83;99386.33;1668692;85;26471;-74
2022/01/31 10:27:36;;;;;;;10.78;4.05;;;;;;;2.10;74.64;99389.77;1668749;85;53046;-74
2022/01/31 10:30:11;;;;;;;15.83;3.77;;;;;;;2.16;75.19;99393.91;1669225;85;27545;-74
2022/01/31 10:32:41;;;;;;;13.80;3.40;;;;;;;2.17;74.83;99379.73;1668564;85;26585;-74
2022/01/31 10:35:11;;;;;;;10.80;4.08;;;;;;;2.15;74.27;99382.20;1663984;85;25925;-73
2022/01/31 10:37:43;;;;;;;13.45;4.17;;;;;;;2.16;74.91;99379.91;1655271;86;26098;-73
2022/01/31 10:46:04;;;;;;;10.78;3.75;;;;;;;2.09;74.05;99378.89;1663102;86;26441;-73
2022/01/31 10:51:58;;;;;;;8.85;2.90;;;;;;;2.11;72.63;99380.39;1663338;86;25843;-74
2022/01/31 10:57:06;;;;;;;6.33;2.77;;;;;;;2.04;70.30;99365.34;1663074;85;27444;-73
2022/01/31 10:59:39;;;;;;;9.23;2.08;;;;;;;2.00;70.82;99369.30;1663540;86;26620;-74
2022/01/31 11:02:10;;;;;;;5.78;2.20;;;;;;;1.98;69.79;99364.19;1663128;86;26176;-74
2022/01/31 11:04:38;;;;;;;;;;;;;;;1.97;69.35;99363.84;1665585;86;25950;-74
2022/01/31 11:07:10;;;;;;;10.45;2.50;;;;;;;1.96;69.63;99364.84;1635919;85;25801;-73
2022/01/31 11:09:37;;;;;;;8.43;2.55;;;;;;;1.91;69.68;99360.53;1635291;87;28450;-74
2022/01/31 11:12:06;;;;;;;6.28;2.33;;;;;;;1.90;70.33;99362.86;1634888;87;25836;-74
2022/01/31 11:14:36;;;;;;;6.40;1.98;;;;;;;1.91;69.98;99362.34;1634998;87;25782;-74
2022/01/31 11:17:11;;;;;;;6.83;2.08;;;;;;;1.91;69.70;99359.70;1635413;87;25849;-74
2022/01/31 11:19:44;;;;;;;8.48;2.40;;;;;;;1.89;69.43;99359.87;1679739;85;26463;-73
2022/01/31 11:22:13;;;;;;;8.98;2.22;;;;;;;1.88;69.16;99356.88;1679939;85;27448;-74
2022/01/31 11:24:47;;;;;;;9.65;3.08;;;;;;;1.89;69.56;99354.59;1684214;83;25890;-74
2022/01/31 11:27:22;;;;;;;12.73;3.62;;;;;;;1.89;69.60;99355.91;1709510;83;25802;-74
2022/01/31 11:29:55;;;;;;;6.78;3.17;;;;;;;1.87;68.98;99357.05;1712108;83;26394;-73
2022/01/31 11:32:21;;;;;;;4.25;2.20;;;;;;;1.88;70.44;99357.39;1663573;86;26644;-74
2022/01/31 11:34:48;;;;;;;9.65;2.42;;;;;;;1.88;67.46;99362.16;1665515;85;27489;-73
2022/01/31 11:37:17;;;;;;;10.20;3.45;;;;;;;1.85;68.30;99361.19;1667512;85;25715;-74
2022/01/31 11:39:55;;;;;;;7.25;3.35;;;;;;;1.86;69.49;99356.73;1659848;85;26525;-73
2022/01/31 11:42:22;;;;;;;11.95;3.10;;;;;;;1.87;68.97;99357.05;1640276;87;25850;-74
2022/01/31 11:44:56;;;;;;;12.33;3.70;;;;;;;1.84;69.90;99360.84;1640290;87;25879;-75
2022/01/31 11:47:25;;;;;;;9.45;2.90;;;;;;;1.84;70.10;99357.39;1640479;87;27482;-73
2022/01/31 11:49:59;;;;;;;6.53;3.33;;;;;;;1.85;70.47;99361.67;1640189;87;25934;-73
2022/01/31 11:52:33;;;;;;;16.48;4.25;;;;;;;1.86;69.74;99359.38;1640212;86;26540;-74
2022/01/31 11:55:04;;;;;;;12.58;5.15;;;;;;;1.86;70.15;99358.86;1640060;87;26465;-74
2022/01/31 11:57:34;;;;;;;22.35;7.10;;;;;;;1.87;70.60;99357.88;1640275;87;26502;-74
2022/01/31 12:00:11;;;;;;;48.67;18.50;;;;;;;1.93;70.80;99359.03;1640583;87;28756;-74
2022/01/31 12:02:57;;;;;;;81.70;30.75;;;;;;;1.96;71.20;99361.37;1640384;87;25917;-74
2022/01/31 12:05:28;;;;;;;52.15;20.90;;;;;;;2.01;71.22;99361.20;1647708;85;25972;-74
2022/01/31 12:08:16;;;;;;;25.52;10.05;;;;;;;2.06;71.09;99360.72;1669128;85;25962;-74